createdAt,value
2019-01-30T00:01:36.110Z,1.10
2019-01-30T00:04:04.663Z,1.10
2019-01-30T00:06:32.168Z,1.10
2019-01-30T00:08:59.720Z,1.10
2019-01-30T00:11:27.242Z,1.20
2019-01-30T00:13:54.762Z,1.10
2019-01-30T00:16:22.321Z,1.10
2019-01-30T00:18:49.862Z,1.10
2019-01-30T00:21:17.357Z,1.00
2019-01-30T00:23:44.906Z,1.00
2019-01-30T00:26:12.410Z,0.90
2019-01-30T00:28:40.294Z,1.00
2019-01-30T00:31:07.858Z,0.90
2019-01-30T00:33:35.378Z,1.00
2019-01-30T00:36:02.893Z,0.70
2019-01-30T00:38:30.432Z,0.80
2019-01-30T00:40:58.026Z,0.70
2019-01-30T00:43:25.590Z,0.60
2019-01-30T00:45:53.114Z,0.50
2019-01-30T00:48:20.590Z,0.40
2019-01-30T00:50:48.160Z,0.40
2019-01-30T00:53:15.686Z,0.30
2019-01-30T00:55:43.234Z,0.20
2019-01-30T00:58:10.774Z,0.10
2019-01-30T01:00:38.300Z,0.00
2019-01-30T01:03:05.798Z,0.00
2019-01-30T01:05:33.384Z,0.10
2019-01-30T01:08:00.906Z,-0.20
2019-01-30T01:10:28.470Z,-0.30
2019-01-30T01:12:55.969Z,-0.30
2019-01-30T01:15:23.531Z,-0.40
2019-01-30T01:17:51.146Z,-0.40
2019-01-30T01:20:18.638Z,-0.60
2019-01-30T01:22:46.304Z,-0.60
2019-01-30T01:25:14.822Z,-0.70
2019-01-30T01:27:42.703Z,-0.80
2019-01-30T01:30:13.206Z,-0.60
2019-01-30T01:32:40.770Z,-0.90
2019-01-30T01:35:08.486Z,-0.80
2019-01-30T01:37:36.002Z,-0.90
2019-01-30T01:40:04.405Z,-1.10
2019-01-30T01:42:31.928Z,-1.10
2019-01-30T01:44:59.430Z,-1.00
2019-01-30T01:47:27.049Z,-1.30
2019-01-30T01:49:54.598Z,-1.40
2019-01-30T01:52:22.107Z,-1.40
2019-01-30T01:54:49.650Z,-1.50
2019-01-30T01:57:17.180Z,-1.30
2019-01-30T01:59:44.700Z,-1.50
2019-01-30T02:02:12.226Z,-1.50
2019-01-30T02:04:39.762Z,-1.50
2019-01-30T02:07:07.276Z,-1.60
2019-01-30T02:09:34.830Z,-1.70
2019-01-30T02:12:02.322Z,-1.70
2019-01-30T02:14:29.934Z,-1.80
2019-01-30T02:16:57.534Z,-1.80
2019-01-30T02:19:25.046Z,-1.80
2019-01-30T02:21:52.567Z,-1.90
2019-01-30T02:24:20.106Z,-1.80
2019-01-30T02:26:47.603Z,-2.00
2019-01-30T02:29:15.132Z,-1.90
2019-01-30T02:31:42.703Z,-1.90
2019-01-30T02:34:10.209Z,-1.90
2019-01-30T02:36:55.303Z,-1.90
2019-01-30T02:39:22.943Z,-2.00
2019-01-30T02:41:50.996Z,-2.10
2019-01-30T02:44:18.506Z,-1.90
2019-01-30T02:46:46.040Z,-2.10
2019-01-30T02:49:13.632Z,-1.80
2019-01-30T02:51:41.182Z,-2.00
2019-01-30T02:54:08.698Z,-2.00
2019-01-30T02:56:36.261Z,-2.00
2019-01-30T02:59:03.801Z,-2.00
2019-01-30T03:01:33.120Z,-2.00
2019-01-30T03:04:00.690Z,-2.00
2019-01-30T03:06:28.206Z,-2.10
2019-01-30T03:08:55.725Z,-2.10
2019-01-30T03:11:23.282Z,-2.10
2019-01-30T03:13:50.817Z,-2.00
2019-01-30T03:16:18.345Z,-2.10
2019-01-30T03:18:45.894Z,-2.10
2019-01-30T03:21:13.413Z,-2.10
2019-01-30T03:23:40.915Z,-2.10
2019-01-30T03:26:08.488Z,-2.10
2019-01-30T03:28:36.044Z,-2.10
2019-01-30T03:31:16.748Z,-2.10
2019-01-30T03:33:32.898Z,-2.10
2019-01-30T03:36:00.471Z,-2.10
2019-01-30T03:38:28.006Z,-2.10
2019-01-30T03:40:55.729Z,-2.10
2019-01-30T03:43:23.282Z,-2.10
2019-01-30T03:45:50.812Z,-2.10
2019-01-30T03:48:18.346Z,-2.20
2019-01-30T03:50:45.905Z,-2.20
2019-01-30T03:53:13.416Z,-2.20
2019-01-30T03:55:41.022Z,-1.90
2019-01-30T03:58:08.533Z,-2.20
2019-01-30T04:00:36.042Z,-2.20
2019-01-30T04:03:03.677Z,-2.20
2019-01-30T04:05:31.238Z,-2.10
2019-01-30T04:07:58.750Z,-2.20
2019-01-30T04:10:26.274Z,-2.20
2019-01-30T04:12:53.820Z,-2.40
2019-01-30T04:15:21.638Z,-2.40
2019-01-30T04:17:49.166Z,-2.40
2019-01-30T04:20:17.858Z,-2.50
2019-01-30T04:22:46.278Z,-2.50
2019-01-30T04:25:13.926Z,-2.50
2019-01-30T04:27:41.446Z,-2.50
2019-01-30T04:30:17.622Z,-2.50
2019-01-30T04:32:45.179Z,-2.40
2019-01-30T04:35:12.705Z,-2.50
2019-01-30T04:37:40.213Z,-2.30
2019-01-30T04:40:10.233Z,-2.30
2019-01-30T04:42:37.797Z,-2.30
2019-01-30T04:45:07.270Z,-2.20
2019-01-30T04:47:34.771Z,-2.10
2019-01-30T04:50:02.519Z,-1.90
2019-01-30T04:52:30.009Z,-2.10
2019-01-30T04:54:57.650Z,-2.00
2019-01-30T04:57:25.193Z,-1.90
2019-01-30T04:59:52.697Z,-1.90
2019-01-30T05:02:20.207Z,-1.90
2019-01-30T05:04:47.788Z,-1.80
2019-01-30T05:07:15.269Z,-1.80
2019-01-30T05:09:42.771Z,-1.80
2019-01-30T05:12:10.314Z,-1.70
2019-01-30T05:14:37.812Z,-1.70
2019-01-30T05:17:05.622Z,-1.70
2019-01-30T05:19:33.137Z,-1.50
2019-01-30T05:22:00.635Z,-1.60
2019-01-30T05:24:28.142Z,-1.60
2019-01-30T05:26:55.677Z,-1.60
2019-01-30T05:29:23.307Z,-1.60
2019-01-30T05:32:00.892Z,-1.60
2019-01-30T05:34:20.199Z,-1.50
2019-01-30T05:36:47.706Z,-1.50
2019-01-30T05:39:15.281Z,-1.40
2019-01-30T05:41:42.877Z,-1.40
2019-01-30T05:44:10.405Z,-1.50
2019-01-30T05:46:37.959Z,-1.50
2019-01-30T05:49:05.468Z,-1.40
2019-01-30T05:51:32.975Z,-1.50
2019-01-30T05:54:00.520Z,-1.50
2019-01-30T05:56:28.016Z,-1.40
2019-01-30T05:58:55.511Z,-1.50
2019-01-30T06:01:23.121Z,-1.50
2019-01-30T06:03:50.715Z,-1.50
2019-01-30T06:06:18.222Z,-1.50
2019-01-30T06:08:45.779Z,-1.40
2019-01-30T06:11:13.274Z,-1.40
2019-01-30T06:13:40.797Z,-1.40
2019-01-30T06:16:08.342Z,-1.30
2019-01-30T06:18:35.901Z,-1.20
2019-01-30T06:21:03.389Z,-1.30
2019-01-30T06:23:30.941Z,-1.30
2019-01-30T06:25:58.511Z,-1.20
2019-01-30T06:28:29.165Z,-1.40
2019-01-30T06:30:55.317Z,-1.30
2019-01-30T06:33:22.835Z,-1.10
2019-01-30T06:35:50.345Z,-1.20
2019-01-30T06:38:17.912Z,-1.10
2019-01-30T06:40:45.418Z,-1.20
2019-01-30T06:43:13.003Z,-1.20
2019-01-30T06:45:40.591Z,-1.00
2019-01-30T06:48:08.217Z,-1.10
2019-01-30T06:50:35.715Z,-1.10
2019-01-30T06:53:03.526Z,-0.90
2019-01-30T06:55:31.041Z,-1.00
2019-01-30T06:57:58.602Z,-1.00
2019-01-30T07:00:26.553Z,-1.00
2019-01-30T07:02:56.109Z,-0.80
2019-01-30T07:05:23.678Z,-0.90
2019-01-30T07:07:51.165Z,-0.90
2019-01-30T07:10:20.833Z,-1.00
2019-01-30T07:12:48.338Z,-1.00
2019-01-30T07:15:15.883Z,-0.90
2019-01-30T07:17:43.365Z,-1.00
2019-01-30T07:20:11.478Z,-0.90
2019-01-30T07:22:39.105Z,-0.60
2019-01-30T07:25:08.041Z,-0.80
2019-01-30T07:27:35.541Z,-0.80
2019-01-30T07:30:05.157Z,-0.70
2019-01-30T07:32:41.918Z,-0.80
2019-01-30T07:35:01.992Z,-0.70
2019-01-30T07:37:29.573Z,-0.70
2019-01-30T07:39:57.065Z,-0.70
2019-01-30T07:42:24.589Z,-0.60
2019-01-30T07:44:52.137Z,-0.30
2019-01-30T07:47:19.653Z,-0.40
2019-01-30T07:49:47.153Z,-0.30
2019-01-30T07:52:14.709Z,-0.20
2019-01-30T07:54:42.263Z,-0.10
2019-01-30T07:57:09.765Z,-0.20
2019-01-30T07:59:37.316Z,-0.20
2019-01-30T08:02:04.825Z,0.10
2019-01-30T08:04:32.341Z,0.10
2019-01-30T08:07:02.842Z,0.20
2019-01-30T08:09:29.605Z,0.20
2019-01-30T08:11:57.101Z,0.40
2019-01-30T08:14:24.701Z,0.40
2019-01-30T08:16:52.190Z,0.40
2019-01-30T08:19:19.679Z,0.50
2019-01-30T08:21:47.313Z,0.50
2019-01-30T08:24:15.020Z,0.80
2019-01-30T08:26:42.650Z,0.60
2019-01-30T08:29:10.396Z,0.50
2019-01-30T08:31:38.040Z,0.50
2019-01-30T08:34:05.567Z,0.50
2019-01-30T08:36:33.061Z,0.60
2019-01-30T08:39:00.648Z,0.60
2019-01-30T08:41:28.173Z,0.60
2019-01-30T08:43:57.966Z,0.70
2019-01-30T08:46:24.987Z,0.80
2019-01-30T08:48:52.506Z,0.80
2019-01-30T08:51:20.007Z,0.90
2019-01-30T08:53:47.494Z,0.90
2019-01-30T08:56:15.033Z,0.90
2019-01-30T08:58:42.533Z,0.90
2019-01-30T09:01:10.243Z,1.10
2019-01-30T09:03:37.766Z,1.20
2019-01-30T09:06:05.301Z,1.10
2019-01-30T09:08:32.781Z,1.10
2019-01-30T09:11:00.325Z,1.00
2019-01-30T09:13:27.819Z,1.10
2019-01-30T09:15:55.372Z,1.20
2019-01-30T09:18:22.957Z,1.30
2019-01-30T09:20:50.476Z,1.40
2019-01-30T09:23:17.988Z,1.40
2019-01-30T09:25:45.531Z,1.40
2019-01-30T09:28:13.065Z,1.50
2019-01-30T09:30:40.725Z,1.60
2019-01-30T09:33:10.001Z,1.70
2019-01-30T09:35:37.486Z,1.70
2019-01-30T09:38:05.333Z,1.80
2019-01-30T09:40:32.853Z,1.80
2019-01-30T09:43:00.405Z,1.90
2019-01-30T09:45:27.989Z,1.90
2019-01-30T09:47:55.529Z,1.90
2019-01-30T09:50:23.286Z,1.90
2019-01-30T09:52:51.061Z,1.80
2019-01-30T09:55:18.693Z,2.00
2019-01-30T09:57:46.196Z,1.80
2019-01-30T10:00:22.661Z,1.90
2019-01-30T10:02:50.154Z,1.90
2019-01-30T10:05:17.677Z,1.90
2019-01-30T10:07:45.223Z,1.90
2019-01-30T10:10:16.066Z,1.90
2019-01-30T10:12:43.543Z,1.80
2019-01-30T10:15:12.804Z,1.90
2019-01-30T10:17:40.404Z,2.00
2019-01-30T10:20:12.197Z,2.00
2019-01-30T10:22:39.780Z,1.90
2019-01-30T10:25:07.604Z,2.00
2019-01-30T10:27:35.124Z,2.00
2019-01-30T10:30:03.467Z,1.90
2019-01-30T10:32:31.053Z,2.10
2019-01-30T10:34:58.584Z,1.90
2019-01-30T10:37:26.125Z,1.90
2019-01-30T10:39:53.657Z,1.90
2019-01-30T10:42:21.156Z,1.80
2019-01-30T10:44:48.704Z,1.90
2019-01-30T10:47:16.415Z,1.80
2019-01-30T10:49:43.943Z,1.80
2019-01-30T10:52:11.492Z,1.80
2019-01-30T10:54:39.025Z,1.70
2019-01-30T10:57:06.557Z,1.80
2019-01-30T10:59:34.043Z,1.80
2019-01-30T11:02:01.536Z,1.90
2019-01-30T11:04:29.089Z,1.80
2019-01-30T11:06:56.585Z,1.90
2019-01-30T11:09:24.118Z,1.90
2019-01-30T11:11:51.652Z,1.90
2019-01-30T11:14:19.174Z,1.90
2019-01-30T11:16:46.710Z,1.90
2019-01-30T11:19:14.225Z,1.90
2019-01-30T11:21:41.748Z,1.90
2019-01-30T11:24:09.304Z,1.90
2019-01-30T11:26:36.839Z,1.90
2019-01-30T11:29:04.338Z,1.90
2019-01-30T11:31:31.894Z,1.90
2019-01-30T11:34:07.353Z,1.90
2019-01-30T11:36:28.783Z,1.90
2019-01-30T11:38:56.284Z,1.90
2019-01-30T11:41:23.837Z,2.00
2019-01-30T11:43:51.348Z,1.90
2019-01-30T11:46:19.312Z,2.00
2019-01-30T11:48:55.998Z,1.90
2019-01-30T11:51:17.992Z,2.00
2019-01-30T11:53:45.514Z,2.10
2019-01-30T11:56:13.066Z,2.20
2019-01-30T11:58:40.632Z,2.20
2019-01-30T12:01:08.156Z,2.30
2019-01-30T12:03:35.733Z,2.40
2019-01-30T12:06:03.380Z,2.40
2019-01-30T12:08:31.003Z,2.40
2019-01-30T12:10:58.496Z,2.50
2019-01-30T12:13:26.037Z,2.50
2019-01-30T12:15:53.565Z,2.50
2019-01-30T12:18:21.144Z,2.50
2019-01-30T12:20:48.684Z,2.60
2019-01-30T12:23:16.212Z,2.50
2019-01-30T12:25:43.786Z,2.50
2019-01-30T12:28:11.296Z,2.50
2019-01-30T12:30:38.803Z,2.50
2019-01-30T12:33:06.400Z,2.40
2019-01-30T12:35:33.922Z,2.40
2019-01-30T12:38:01.467Z,2.40
2019-01-30T12:40:29.198Z,2.40
2019-01-30T12:42:56.749Z,2.40
2019-01-30T12:45:26.728Z,2.40
2019-01-30T12:47:54.574Z,2.40
2019-01-30T12:50:22.190Z,2.40
2019-01-30T12:52:49.675Z,2.40
2019-01-30T12:55:17.254Z,2.30
2019-01-30T12:57:44.784Z,2.40
2019-01-30T13:00:16.733Z,2.50
2019-01-30T13:02:44.475Z,2.30
2019-01-30T13:05:12.491Z,2.30
2019-01-30T13:07:40.024Z,2.20
2019-01-30T13:10:08.208Z,2.30
2019-01-30T13:12:35.777Z,2.40
2019-01-30T13:15:05.322Z,2.20
2019-01-30T13:17:32.862Z,2.10
2019-01-30T13:20:00.529Z,2.20
2019-01-30T13:22:27.999Z,2.20
2019-01-30T13:24:55.568Z,2.20
2019-01-30T13:27:23.122Z,2.10
2019-01-30T13:29:50.640Z,2.10
2019-01-30T13:32:18.239Z,2.10
2019-01-30T13:34:48.949Z,2.10
2019-01-30T13:37:15.077Z,2.00
2019-01-30T13:39:42.677Z,1.90
2019-01-30T13:42:10.200Z,2.00
2019-01-30T13:44:37.820Z,2.00
2019-01-30T13:47:05.646Z,2.00
2019-01-30T13:49:33.145Z,2.00
2019-01-30T13:52:00.743Z,2.20
2019-01-30T13:54:28.258Z,2.00
2019-01-30T13:56:55.784Z,2.00
2019-01-30T13:59:23.365Z,2.00
2019-01-30T14:01:50.981Z,2.00
2019-01-30T14:04:18.500Z,2.00
2019-01-30T14:06:46.076Z,1.90
2019-01-30T14:09:13.609Z,1.90
2019-01-30T14:11:41.118Z,1.80
2019-01-30T14:14:08.670Z,1.80
2019-01-30T14:16:36.237Z,1.80
2019-01-30T14:19:04.076Z,1.80
2019-01-30T14:21:31.606Z,1.80
2019-01-30T14:24:00.521Z,1.70
2019-01-30T14:26:28.040Z,1.70
2019-01-30T14:28:55.515Z,1.70
2019-01-30T14:31:23.103Z,1.70
2019-01-30T14:33:50.622Z,1.70
2019-01-30T14:36:18.097Z,1.60
2019-01-30T14:41:30.995Z,1.60
2019-01-30T14:43:58.498Z,1.60
2019-01-30T14:46:26.018Z,1.50
2019-01-30T14:48:53.581Z,1.50
2019-01-30T14:51:21.099Z,1.50
2019-01-30T14:53:48.615Z,1.50
2019-01-30T14:56:16.160Z,1.50
2019-01-30T14:58:43.707Z,1.50
2019-01-30T15:01:11.242Z,1.50
2019-01-30T15:03:38.763Z,1.50
2019-01-30T15:06:06.250Z,1.60
2019-01-30T15:08:34.036Z,1.50
2019-01-30T15:11:01.570Z,1.50
2019-01-30T15:13:29.045Z,1.60
2019-01-30T15:15:56.588Z,1.60
2019-01-30T15:18:24.131Z,1.60
2019-01-30T15:20:51.711Z,1.50
2019-01-30T15:23:19.354Z,1.50
2019-01-30T15:25:46.920Z,1.50
2019-01-30T15:28:14.454Z,1.50
2019-01-30T15:30:46.454Z,1.50
2019-01-30T15:33:14.217Z,1.50
2019-01-30T15:35:41.751Z,1.50
2019-01-30T15:38:11.898Z,1.40
2019-01-30T15:40:39.486Z,1.40
2019-01-30T15:43:07.125Z,1.40
2019-01-30T15:45:34.684Z,1.40
2019-01-30T15:48:02.232Z,1.40
2019-01-30T15:50:30.958Z,1.40
2019-01-30T15:52:59.688Z,1.50
2019-01-30T15:55:27.421Z,1.40
2019-01-30T15:57:57.496Z,1.40
2019-01-30T16:00:30.756Z,1.40
2019-01-30T16:02:58.283Z,1.40
2019-01-30T16:05:25.814Z,1.40
2019-01-30T16:07:53.391Z,1.40
2019-01-30T16:10:20.932Z,1.50
2019-01-30T16:12:48.476Z,1.50
2019-01-30T16:15:22.782Z,1.40
2019-01-30T16:17:50.425Z,1.40
2019-01-30T16:20:18.043Z,1.40
2019-01-30T16:22:45.604Z,1.40
2019-01-30T16:25:13.123Z,1.40
2019-01-30T16:27:40.675Z,1.50
2019-01-30T16:30:12.676Z,1.40
2019-01-30T16:32:40.247Z,1.50
2019-01-30T16:35:10.323Z,1.50
2019-01-30T16:37:37.896Z,1.50
2019-01-30T16:40:06.777Z,1.50
2019-01-30T16:42:34.576Z,1.40
2019-01-30T16:45:02.700Z,1.40
2019-01-30T16:47:30.376Z,1.50
2019-01-30T16:49:57.936Z,1.50
2019-01-30T16:52:25.472Z,1.40
2019-01-30T16:54:53.017Z,1.50
2019-01-30T16:57:20.594Z,1.50
2019-01-30T16:59:49.202Z,1.50
2019-01-30T17:02:16.702Z,1.60
2019-01-30T17:04:44.224Z,1.50
2019-01-30T17:07:11.802Z,1.40
2019-01-30T17:09:39.311Z,1.60
2019-01-30T17:12:06.796Z,1.40
2019-01-30T17:14:34.362Z,1.50
2019-01-30T17:17:01.920Z,1.40
2019-01-30T17:19:29.445Z,1.70
2019-01-30T17:21:57.572Z,1.50
2019-01-30T17:24:25.080Z,1.70
2019-01-30T17:26:52.572Z,1.50
2019-01-30T17:29:22.731Z,1.50
2019-01-30T17:31:49.456Z,1.60
2019-01-30T17:34:16.941Z,1.50
2019-01-30T17:36:44.497Z,1.50
2019-01-30T17:39:11.991Z,1.50
2019-01-30T17:41:39.525Z,1.40
2019-01-30T17:44:07.073Z,1.50
2019-01-30T17:46:34.643Z,1.50
2019-01-30T17:49:02.137Z,1.50
2019-01-30T17:51:29.651Z,1.40
2019-01-30T17:53:57.215Z,1.40
2019-01-30T17:56:24.727Z,1.50
2019-01-30T17:58:52.354Z,1.50
2019-01-30T18:01:20.056Z,1.50
2019-01-30T18:03:47.563Z,1.50
2019-01-30T18:06:15.079Z,1.40
2019-01-30T18:08:42.628Z,1.40
2019-01-30T18:11:10.130Z,1.40
2019-01-30T18:13:37.631Z,1.60
2019-01-30T18:16:05.374Z,1.40
2019-01-30T18:18:32.936Z,1.40
2019-01-30T18:21:00.447Z,1.40
2019-01-30T18:23:27.998Z,1.40
2019-01-30T18:25:57.133Z,1.40
2019-01-30T18:28:24.638Z,1.30
2019-01-30T18:30:52.153Z,1.30
2019-01-30T18:33:19.703Z,1.30
2019-01-30T18:35:47.203Z,1.20
2019-01-30T18:38:14.889Z,1.30
2019-01-30T18:40:42.450Z,1.20
2019-01-30T18:43:09.955Z,1.20
2019-01-30T18:45:37.467Z,1.30
2019-01-30T18:48:05.626Z,1.20
2019-01-30T18:50:33.154Z,1.20
2019-01-30T18:53:00.839Z,1.20
2019-01-30T18:55:31.023Z,1.20
2019-01-30T18:57:58.408Z,1.20
2019-01-30T19:00:29.245Z,1.30
2019-01-30T19:02:58.486Z,1.30
2019-01-30T19:05:26.362Z,1.50
2019-01-30T19:07:53.881Z,1.30
2019-01-30T19:10:21.415Z,1.30
2019-01-30T19:12:48.974Z,1.30
2019-01-30T19:15:18.416Z,1.30
2019-01-30T19:17:46.106Z,1.50
2019-01-30T19:20:16.518Z,1.30
2019-01-30T19:22:44.071Z,1.30
2019-01-30T19:25:14.442Z,1.30
2019-01-30T19:27:42.195Z,1.40
2019-01-30T19:30:13.804Z,1.30
2019-01-30T19:32:41.721Z,1.30
2019-01-30T19:35:10.672Z,1.40
2019-01-30T19:37:38.122Z,1.30
2019-01-30T19:40:09.431Z,1.40
2019-01-30T19:42:36.901Z,1.40
2019-01-30T19:45:08.307Z,1.40
2019-01-30T19:47:35.940Z,1.40
2019-01-30T19:50:06.394Z,1.40
2019-01-30T19:52:33.951Z,1.40
2019-01-30T19:55:04.281Z,1.40
2019-01-30T19:57:34.138Z,1.50
2019-01-30T20:00:02.263Z,1.50
2019-01-30T20:02:29.763Z,1.40
2019-01-30T20:04:57.583Z,1.50
2019-01-30T20:07:25.415Z,1.40
2019-01-30T20:09:52.961Z,1.50
2019-01-30T20:12:20.499Z,1.40
2019-01-30T20:14:48.797Z,1.50
2019-01-30T20:17:17.475Z,1.40
2019-01-30T20:19:49.197Z,1.40
2019-01-30T20:22:16.784Z,1.40
2019-01-30T20:24:45.443Z,1.50
2019-01-30T20:27:12.935Z,1.40
2019-01-30T20:29:40.871Z,1.40
2019-01-30T20:32:10.393Z,1.40
2019-01-30T20:34:38.039Z,1.40
2019-01-30T20:37:06.058Z,1.40
2019-01-30T20:39:33.808Z,1.40
2019-01-30T20:42:01.513Z,1.40
2019-01-30T20:44:29.399Z,1.40
2019-01-30T20:46:59.722Z,1.50
2019-01-30T20:49:28.685Z,1.40
2019-01-30T20:51:56.199Z,1.40
2019-01-30T20:54:23.989Z,1.50
2019-01-30T20:56:51.604Z,1.50
2019-01-30T20:59:20.327Z,1.50
2019-01-30T21:01:47.881Z,1.50
2019-01-30T21:04:15.689Z,1.40
2019-01-30T21:06:43.303Z,1.40
2019-01-30T21:09:12.317Z,1.40
2019-01-30T21:11:40.855Z,1.40
2019-01-30T21:14:11.111Z,1.40
2019-01-30T21:16:42.547Z,1.40
2019-01-30T21:19:10.041Z,1.40
2019-01-30T21:21:37.608Z,1.40
2019-01-30T21:24:05.564Z,1.40
2019-01-30T21:26:36.619Z,1.30
2019-01-30T21:29:04.525Z,1.30
2019-01-30T21:31:32.051Z,1.40
2019-01-30T21:34:02.291Z,1.40
2019-01-30T21:36:29.831Z,1.30
2019-01-30T21:38:57.351Z,1.50
2019-01-30T21:41:24.850Z,1.20
2019-01-30T21:43:52.509Z,1.30
2019-01-30T21:46:20.698Z,1.30
2019-01-30T21:48:48.270Z,1.30
2019-01-30T21:51:18.477Z,1.30
2019-01-30T21:53:46.318Z,1.40
2019-01-30T21:56:14.751Z,1.30
2019-01-30T21:58:42.258Z,1.30
2019-01-30T22:01:09.763Z,1.30
2019-01-30T22:03:37.305Z,1.30
2019-01-30T22:06:05.351Z,1.30
2019-01-30T22:08:35.765Z,1.30
2019-01-30T22:11:02.211Z,1.30
2019-01-30T22:13:30.105Z,1.20
2019-01-30T22:15:57.641Z,1.20
2019-01-30T22:18:25.216Z,1.20
2019-01-30T22:20:52.701Z,1.20
2019-01-30T22:23:20.202Z,1.20
2019-01-30T22:25:47.735Z,1.20
2019-01-30T22:28:15.251Z,1.20
2019-01-30T22:30:42.808Z,1.20
2019-01-30T22:33:10.578Z,1.40
2019-01-30T22:35:38.101Z,1.20
2019-01-30T22:38:12.404Z,1.20
2019-01-30T22:40:34.946Z,1.20
2019-01-30T22:43:02.451Z,1.20
2019-01-30T22:45:30.011Z,1.20
2019-01-30T22:47:57.547Z,1.20
2019-01-30T22:50:25.026Z,1.20
2019-01-30T22:52:52.537Z,1.20
2019-01-30T22:55:21.240Z,1.30
2019-01-30T22:57:50.938Z,1.20
2019-01-30T23:00:51.043Z,1.30
2019-01-30T23:03:19.645Z,1.30
2019-01-30T23:06:31.101Z,1.40
2019-01-30T23:09:26.434Z,1.30
2019-01-30T23:12:33.245Z,1.30
2019-01-30T23:15:16.729Z,1.30
2019-01-30T23:18:28.377Z,1.30
2019-01-30T23:21:00.825Z,1.20
2019-01-30T23:23:52.217Z,1.20
2019-01-30T23:26:30.259Z,1.30
2019-01-30T23:29:36.068Z,1.30
2019-01-30T23:32:24.428Z,1.30
2019-01-30T23:35:12.964Z,1.30
2019-01-30T23:38:22.073Z,1.30
2019-01-30T23:41:23.474Z,1.30
2019-01-30T23:44:11.235Z,1.40
2019-01-30T23:47:21.723Z,1.30
2019-01-30T23:50:18.722Z,1.30
2019-01-30T23:53:30.328Z,1.30
2019-01-30T23:56:23.153Z,1.30
2019-01-30T23:59:09.311Z,1.30
